Antigo, WI

3:12 PM CST on November 24, 2017 (GMT -0600)
Langlade County

Weather History for KAIG - October, 2013

Change the Weather History Date:

Monday, October 7, 2013

  Actual Average Record
Temperature  
Mean Temperature 48 °F -  
Max Temperature 59 °F 57 °F 82 °F (2007)
Min Temperature 38 °F 36 °F 21 °F (2001)
Degree Days  
Heating Degree Days 16    
Moisture  
Dew Point 40 °F    
Average Humidity 76    
Maximum Humidity 97    
Minimum Humidity 42    
Precipitation  
Precipitation 0.00 in - - ()
Sea Level Pressure  
Sea Level Pressure 29.86 in    
Wind  
Wind Speed 9 mph (NW)    
Max Wind Speed 18 mph    
Max Gust Speed 25 mph    
Visibility 10 miles    
Events Rain    
Averages and records for this station are not official NWS values.
T = Trace of Precipitation, MM = Missing Value Source: NWS Daily Summary

Daily Weather History Graph

Daily Weather History Graph

Search for Another Location

Airport or City:

Trip Planner

Search our weather history database for the weather conditions in past years. The results will help you decide how hot, cold, wet, or windy it might be!

Date:

Astronomy

Oct. 07, 2013 Rise Set
Actual Time 7:02 AM CDT 6:25 PM CDT
Civil Twilight 6:32 AM CDT 6:54 PM CDT
Nautical Twilight 5:58 AM CDT 7:28 PM CDT
Astronomical Twilight 5:24 AM CDT 8:02 PM CDT
Moon 10:00 AM CDT (10/7) 8:00 PM CDT (10/7)
Length of Visible Light 12h 21m
Length of Day
11h 22m
Waxing Crescent, 9% of the Moon is Illuminated
Oct 7
Waxing Crescent
Oct 11
First Quarter
Oct 18
Full
Oct 26
Last Quarter
Nov 3
New

Hourly Weather History & Observations

Time (CDT) Temp. Windchill Dew Point Humidity Pressure Visibility Wind Dir Wind Speed Gust Speed Precip Events Conditions
12:15 AM 47.8 °F - 44.1 °F 87% 29.68 in 10.0 mi NW 4.6 mph - N/A   Overcast
12:35 AM 48.2 °F - 45.0 °F 89% 29.68 in 10.0 mi NNW 8.1 mph - N/A   Overcast
12:55 AM 48.0 °F - 45.1 °F 90% 29.68 in 7.0 mi NNW 11.5 mph - N/A   Overcast
1:15 AM 47.3 °F - 45.3 °F 93% 29.69 in 7.0 mi NNW 10.4 mph - N/A   Overcast
1:35 AM 47.3 °F - 43.3 °F 86% 29.69 in 10.0 mi NNW 13.8 mph - N/A   Overcast
1:55 AM 47.1 °F - 43.7 °F 88% 29.69 in 10.0 mi NNW 15.0 mph - N/A   Overcast
2:15 AM 45.9 °F 40.8 °F 44.6 °F 95% 29.69 in 7.0 mi NNW 10.4 mph - N/A Rain Light Rain
2:35 AM 45.7 °F 40.6 °F 44.6 °F 96% 29.69 in 7.0 mi NNW 10.4 mph - N/A   Overcast
2:55 AM 45.7 °F 40.6 °F 44.1 °F 94% 29.70 in 5.0 mi NNW 10.4 mph 16.1 mph N/A   Overcast
3:15 AM 45.3 °F 39.3 °F 42.3 °F 89% 29.70 in 10.0 mi NNW 12.7 mph 19.6 mph N/A   Overcast
3:35 AM 44.8 °F 38.0 °F 41.5 °F 88% 29.71 in 10.0 mi NNW 15.0 mph - N/A   Overcast
3:55 AM 44.6 °F 38.8 °F 41.7 °F 90% 29.71 in 10.0 mi NNW 11.5 mph 18.4 mph N/A   Overcast
4:15 AM 44.6 °F 39.2 °F 41.4 °F 88% 29.72 in 10.0 mi NNW 10.4 mph - N/A   Overcast
4:35 AM 44.6 °F 41.4 °F 41.7 °F 90% 29.73 in 10.0 mi NW 5.8 mph - N/A   Overcast
4:55 AM 43.5 °F 38.9 °F 41.2 °F 91% 29.73 in 10.0 mi NW 8.1 mph - N/A   Mostly Cloudy
5:15 AM 42.8 °F 38.6 °F 41.0 °F 93% 29.74 in 10.0 mi NW 6.9 mph - N/A   Scattered Clouds
5:35 AM 42.1 °F 37.1 °F 40.6 °F 95% 29.74 in 10.0 mi WNW 8.1 mph - N/A   Clear
5:55 AM 41.9 °F 37.5 °F 40.5 °F 95% 29.75 in 10.0 mi WNW 6.9 mph - N/A   Scattered Clouds
6:15 AM 42.1 °F 37.1 °F 40.8 °F 95% 29.75 in 10.0 mi WNW 8.1 mph - N/A   Mostly Cloudy
6:35 AM 42.1 °F 37.1 °F 41.0 °F 96% 29.76 in 10.0 mi West 8.1 mph - N/A   Overcast
6:55 AM 42.8 °F 38.0 °F 41.4 °F 95% 29.76 in 10.0 mi West 8.1 mph - N/A   Overcast
7:15 AM 42.8 °F 38.0 °F 41.0 °F 93% 29.78 in 10.0 mi West 8.1 mph - N/A   Overcast
7:35 AM 43.0 °F 36.4 °F 41.2 °F 93% 29.78 in 10.0 mi WNW 12.7 mph - N/A   Overcast
7:55 AM 42.8 °F 37.5 °F 41.0 °F 93% 29.78 in 10.0 mi WNW 9.2 mph - N/A   Mostly Cloudy
8:15 AM 43.7 °F 39.1 °F 41.2 °F 91% 29.79 in 10.0 mi WNW 8.1 mph - N/A   Scattered Clouds
8:35 AM 44.8 °F 39.0 °F 41.2 °F 87% 29.80 in 10.0 mi WNW 11.5 mph 17.3 mph N/A   Clear
8:55 AM 46.2 °F 41.7 °F 41.4 °F 83% 29.80 in 10.0 mi WNW 9.2 mph - N/A   Clear
9:15 AM 47.3 °F - 41.7 °F 81% 29.81 in 10.0 mi WNW 9.2 mph - N/A   Clear
9:35 AM 49.1 °F - 42.3 °F 77% 29.82 in 10.0 mi WNW 11.5 mph 16.1 mph N/A   Clear
9:55 AM 50.9 °F - 42.4 °F 73% 29.82 in 10.0 mi WNW 10.4 mph - N/A   Clear
10:15 AM 51.8 °F - 41.9 °F 69% 29.83 in 10.0 mi WNW 11.5 mph - N/A   Clear
10:35 AM 53.6 °F - 42.6 °F 66% 29.83 in 10.0 mi WNW 11.5 mph 18.4 mph N/A   Clear
10:55 AM 54.5 °F - 42.3 °F 63% 29.84 in 10.0 mi WNW 15.0 mph - N/A   Scattered Clouds
11:15 AM 54.9 °F - 41.7 °F 61% 29.84 in 10.0 mi NW 13.8 mph 23.0 mph N/A   Scattered Clouds
11:35 AM 55.4 °F - 41.7 °F 60% 29.85 in 10.0 mi WNW 18.4 mph 23.0 mph N/A   Scattered Clouds
11:55 AM 55.6 °F - 40.8 °F 58% 29.86 in 10.0 mi NW 13.8 mph - N/A   Scattered Clouds
12:15 PM 56.7 °F - 40.8 °F 55% 29.86 in 10.0 mi NW 18.4 mph 24.2 mph N/A   Scattered Clouds
12:35 PM 57.6 °F - 40.6 °F 53% 29.86 in 10.0 mi WNW 16.1 mph 24.2 mph N/A   Mostly Cloudy
12:55 PM 55.9 °F - 40.3 °F 56% 29.87 in 10.0 mi NW 16.1 mph 23.0 mph N/A   Scattered Clouds
1:15 PM 58.5 °F - 39.7 °F 50% 29.87 in 10.0 mi NW 18.4 mph 25.3 mph N/A   Scattered Clouds
1:35 PM 57.7 °F - 39.9 °F 51% 29.87 in 10.0 mi NW 12.7 mph 23.0 mph N/A   Scattered Clouds
1:55 PM 56.3 °F - 38.8 °F 52% 29.88 in 10.0 mi WNW 13.8 mph 21.9 mph N/A   Scattered Clouds
2:15 PM 59.2 °F - 39.4 °F 48% 29.88 in 10.0 mi WNW 15.0 mph 21.9 mph N/A   Scattered Clouds
2:35 PM 59.0 °F - 38.3 °F 46% 29.90 in 10.0 mi WNW 15.0 mph 23.0 mph N/A   Scattered Clouds
2:55 PM 58.8 °F - 38.3 °F 47% 29.90 in 10.0 mi NW 15.0 mph 19.6 mph N/A   Scattered Clouds
3:15 PM 58.3 °F - 35.8 °F 43% 29.90 in 10.0 mi NW 15.0 mph 23.0 mph N/A   Clear
3:35 PM 58.3 °F - 37.2 °F 45% 29.91 in 10.0 mi NW 11.5 mph 17.3 mph N/A   Clear
3:55 PM 58.8 °F - 36.9 °F 44% 29.91 in 10.0 mi NW 6.9 mph 20.7 mph N/A   Clear
4:15 PM 58.8 °F - 36.0 °F 42% 29.92 in 10.0 mi NW 10.4 mph - N/A   Clear
4:35 PM 58.5 °F - 36.3 °F 44% 29.93 in 10.0 mi NW 11.5 mph 18.4 mph N/A   Clear
4:55 PM 58.3 °F - 36.1 °F 44% 29.93 in 10.0 mi NW 11.5 mph 16.1 mph N/A   Clear
5:15 PM 57.6 °F - 36.1 °F 45% 29.93 in 10.0 mi NW 9.2 mph - N/A   Clear
5:35 PM 56.8 °F - 36.9 °F 47% 29.94 in 10.0 mi WNW 8.1 mph - N/A   Clear
5:55 PM 55.8 °F - 37.6 °F 51% 29.95 in 10.0 mi WNW 5.8 mph - N/A   Clear
6:15 PM 53.6 °F - 37.4 °F 54% 29.95 in 10.0 mi WNW 4.6 mph - N/A   Clear
6:35 PM 51.6 °F - 37.4 °F 58% 29.96 in 10.0 mi NW 4.6 mph - N/A   Clear
6:55 PM 49.3 °F - 39.2 °F 68% 29.97 in 10.0 mi Calm Calm - N/A   Clear
7:15 PM 47.5 °F - 38.7 °F 71% 29.97 in 10.0 mi Calm Calm - N/A   Clear
7:35 PM 45.0 °F - 38.5 °F 78% 29.98 in 10.0 mi Calm Calm - N/A   Clear
7:55 PM 42.1 °F 40.2 °F 38.5 °F 87% 29.99 in 10.0 mi South 3.5 mph - N/A   Clear
8:15 PM 42.1 °F - 39.6 °F 91% 30.01 in 10.0 mi Calm Calm - N/A   Clear
8:35 PM 43.7 °F - 39.9 °F 87% 30.02 in 10.0 mi Calm Calm - N/A   Clear
8:55 PM 41.5 °F - 37.9 °F 87% 30.02 in 10.0 mi Calm Calm - N/A   Clear
9:15 PM 41.0 °F - 38.5 °F 91% 30.03 in 10.0 mi Calm Calm - N/A   Clear
9:35 PM 39.7 °F - 38.1 °F 94% 30.04 in 10.0 mi Calm Calm - N/A   Clear
9:55 PM 40.1 °F - 39.2 °F 97% 30.04 in 10.0 mi Calm Calm - N/A   Clear
10:15 PM 40.6 °F - 38.8 °F 93% 30.05 in 10.0 mi Calm Calm - N/A   Clear
10:35 PM 40.6 °F - 39.2 °F 95% 30.05 in 10.0 mi Calm Calm - N/A   Clear
10:55 PM 39.7 °F - 38.3 °F 95% 30.05 in 10.0 mi Calm Calm - N/A   Clear
11:15 PM 39.2 °F - 38.3 °F 97% 30.05 in 10.0 mi Calm Calm - N/A   Clear
11:35 PM 38.7 °F - 37.8 °F 97% 30.05 in 10.0 mi Calm Calm - N/A   Clear
11:55 PM 38.3 °F - 37.6 °F 97% 30.05 in 10.0 mi Calm Calm - N/A   Clear